sensor_id;sensor_type;location;lat;lon;timestamp;pressure;altitude;pressure_sealevel;temperature;humidity
12987;BME280;58897;51.960;5.582;2023-06-24T00:00:14;102069.25;;;19.56;100.00
12987;BME280;58897;51.960;5.582;2023-06-24T00:02:42;102072.38;;;19.53;100.00
12987;BME280;58897;51.960;5.582;2023-06-24T00:05:12;102067.97;;;19.52;100.00
12987;BME280;58897;51.960;5.582;2023-06-24T00:07:41;102075.72;;;19.48;100.00
12987;BME280;58897;51.960;5.582;2023-06-24T00:10:13;102070.44;;;19.47;100.00
12987;BME280;58897;51.960;5.582;2023-06-24T00:12:42;102073.72;;;19.42;100.00
12987;BME280;58897;51.960;5.582;2023-06-24T00:15:09;102071.66;;;19.44;100.00
12987;BME280;58897;51.960;5.582;2023-06-24T00:17:37;102081.56;;;19.45;100.00
12987;BME280;58897;51.960;5.582;2023-06-24T00:20:07;102075.66;;;19.42;100.00
12987;BME280;58897;51.960;5.582;2023-06-24T00:22:38;102082.06;;;19.34;100.00
12987;BME280;58897;51.960;5.582;2023-06-24T00:25:11;102087.03;;;19.31;100.00
12987;BME280;58897;51.960;5.582;2023-06-24T00:27:38;102086.66;;;19.34;100.00
12987;BME280;58897;51.960;5.582;2023-06-24T00:30:05;102082.59;;;19.30;100.00
12987;BME280;58897;51.960;5.582;2023-06-24T00:32:32;102103.69;;;19.15;100.00
12987;BME280;58897;51.960;5.582;2023-06-24T00:34:59;102121.72;;;19.24;100.00
12987;BME280;58897;51.960;5.582;2023-06-24T00:37:26;102110.59;;;19.10;100.00
12987;BME280;58897;51.960;5.582;2023-06-24T00:39:53;102119.28;;;19.29;100.00
12987;BME280;58897;51.960;5.582;2023-06-24T00:42:20;102130.31;;;19.21;100.00
12987;BME280;58897;51.960;5.582;2023-06-24T00:44:48;102121.06;;;19.36;100.00
12987;BME280;58897;51.960;5.582;2023-06-24T00:47:15;102115.75;;;19.35;100.00
12987;BME280;58897;51.960;5.582;2023-06-24T00:49:42;102118.50;;;19.35;100.00
12987;BME280;58897;51.960;5.582;2023-06-24T00:52:12;102107.53;;;19.35;100.00
12987;BME280;58897;51.960;5.582;2023-06-24T00:54:43;102113.22;;;19.33;100.00
12987;BME280;58897;51.960;5.582;2023-06-24T00:57:11;102110.19;;;19.28;100.00
12987;BME280;58897;51.960;5.582;2023-06-24T00:59:39;102116.31;;;19.30;100.00
12987;BME280;58897;51.960;5.582;2023-06-24T01:02:07;102110.56;;;19.25;100.00
12987;BME280;58897;51.960;5.582;2023-06-24T01:04:45;102109.72;;;19.25;100.00
12987;BME280;58897;51.960;5.582;2023-06-24T01:07:12;102105.75;;;19.27;100.00
12987;BME280;58897;51.960;5.582;2023-06-24T01:09:39;102102.16;;;19.27;100.00
12987;BME280;58897;51.960;5.582;2023-06-24T01:12:07;102099.91;;;19.30;100.00
12987;BME280;58897;51.960;5.582;2023-06-24T01:14:36;102097.16;;;19.30;100.00
12987;BME280;58897;51.960;5.582;2023-06-24T01:17:14;102094.69;;;19.35;100.00
12987;BME280;58897;51.960;5.582;2023-06-24T01:28:41;102090.91;;;19.22;100.00
12987;BME280;58897;51.960;5.582;2023-06-24T01:31:31;102093.56;;;19.15;100.00
12987;BME280;58897;51.960;5.582;2023-06-24T01:36:38;102094.63;;;18.99;100.00
12987;BME280;58897;51.960;5.582;2023-06-24T01:39:08;102091.03;;;19.14;100.00
12987;BME280;58897;51.960;5.582;2023-06-24T01:41:44;102089.81;;;19.16;100.00
12987;BME280;58897;51.960;5.582;2023-06-24T01:44:16;102082.41;;;19.17;100.00
12987;BME280;58897;51.960;5.582;2023-06-24T01:46:46;102096.31;;;19.00;100.00
12987;BME280;58897;51.960;5.582;2023-06-24T01:49:15;102082.88;;;18.91;100.00
12987;BME280;58897;51.960;5.582;2023-06-24T01:51:46;102087.06;;;19.01;100.00
12987;BME280;58897;51.960;5.582;2023-06-24T01:54:15;102088.47;;;18.97;100.00
12987;BME280;58897;51.960;5.582;2023-06-24T01:56:46;102087.50;;;18.90;100.00
12987;BME280;58897;51.960;5.582;2023-06-24T01:59:16;102088.75;;;18.88;100.00
12987;BME280;58897;51.960;5.582;2023-06-24T02:01:44;102083.53;;;18.78;100.00
12987;BME280;58897;51.960;5.582;2023-06-24T02:04:15;102085.91;;;18.81;100.00
12987;BME280;58897;51.960;5.582;2023-06-24T02:06:46;102084.84;;;18.68;100.00
12987;BME280;58897;51.960;5.582;2023-06-24T02:09:17;102086.72;;;18.67;100.00
12987;BME280;58897;51.960;5.582;2023-06-24T02:11:46;102085.25;;;18.79;100.00
12987;BME280;58897;51.960;5.582;2023-06-24T02:14:16;102088.09;;;18.86;100.00
12987;BME280;58897;51.960;5.582;2023-06-24T02:16:45;102076.00;;;18.80;100.00
12987;BME280;58897;51.960;5.582;2023-06-24T02:19:13;102081.22;;;18.90;100.00
12987;BME280;58897;51.960;5.582;2023-06-24T02:21:51;102073.56;;;19.00;100.00
12987;BME280;58897;51.960;5.582;2023-06-24T02:24:21;102071.56;;;18.94;100.00
12987;BME280;58897;51.960;5.582;2023-06-24T02:26:49;102068.63;;;18.95;100.00
12987;BME280;58897;51.960;5.582;2023-06-24T02:29:17;102057.41;;;18.90;100.00
12987;BME280;58897;51.960;5.582;2023-06-24T02:31:45;102059.75;;;18.93;100.00
12987;BME280;58897;51.960;5.582;2023-06-24T02:34:12;102057.41;;;18.90;100.00
12987;BME280;58897;51.960;5.582;2023-06-24T02:36:39;102059.31;;;18.90;100.00
12987;BME280;58897;51.960;5.582;2023-06-24T02:39:05;102061.00;;;18.91;100.00
12987;BME280;58897;51.960;5.582;2023-06-24T02:41:35;102054.78;;;18.97;100.00
12987;BME280;58897;51.960;5.582;2023-06-24T02:44:02;102056.28;;;18.85;100.00
12987;BME280;58897;51.960;5.582;2023-06-24T02:46:34;102053.34;;;18.86;100.00
12987;BME280;58897;51.960;5.582;2023-06-24T02:49:03;102049.66;;;18.79;100.00
12987;BME280;58897;51.960;5.582;2023-06-24T02:51:30;102057.69;;;18.81;100.00
12987;BME280;58897;51.960;5.582;2023-06-24T02:53:57;102054.56;;;18.84;100.00
12987;BME280;58897;51.960;5.582;2023-06-24T02:56:26;102049.59;;;18.87;100.00
12987;BME280;58897;51.960;5.582;2023-06-24T02:58:54;102045.78;;;18.74;100.00
12987;BME280;58897;51.960;5.582;2023-06-24T03:01:23;102040.31;;;18.74;100.00
12987;BME280;58897;51.960;5.582;2023-06-24T03:03:53;102050.63;;;18.72;100.00
12987;BME280;58897;51.960;5.582;2023-06-24T03:06:21;102047.19;;;18.70;100.00
12987;BME280;58897;51.960;5.582;2023-06-24T03:08:49;102044.09;;;18.73;100.00
12987;BME280;58897;51.960;5.582;2023-06-24T03:11:16;102051.53;;;18.64;100.00
12987;BME280;58897;51.960;5.582;2023-06-24T03:13:43;102050.69;;;18.64;100.00
12987;BME280;58897;51.960;5.582;2023-06-24T03:16:11;102051.72;;;18.63;100.00
12987;BME280;58897;51.960;5.582;2023-06-24T03:18:43;102055.97;;;18.65;100.00
12987;BME280;58897;51.960;5.582;2023-06-24T03:21:10;102053.88;;;18.67;100.00
12987;BME280;58897;51.960;5.582;2023-06-24T03:23:36;102060.78;;;18.63;100.00
12987;BME280;58897;51.960;5.582;2023-06-24T03:26:03;102055.28;;;18.48;100.00
12987;BME280;58897;51.960;5.582;2023-06-24T03:28:30;102064.34;;;18.49;100.00
12987;BME280;58897;51.960;5.582;2023-06-24T03:30:57;102056.78;;;18.51;100.00
12987;BME280;58897;51.960;5.582;2023-06-24T03:33:25;102060.06;;;18.46;100.00
12987;BME280;58897;51.960;5.582;2023-06-24T03:35:55;102062.75;;;18.55;100.00
12987;BME280;58897;51.960;5.582;2023-06-24T03:38:22;102065.44;;;18.40;100.00
12987;BME280;58897;51.960;5.582;2023-06-24T03:40:49;102058.91;;;18.41;100.00
12987;BME280;58897;51.960;5.582;2023-06-24T03:43:16;102063.22;;;18.35;100.00
12987;BME280;58897;51.960;5.582;2023-06-24T03:45:45;102065.59;;;18.38;100.00
12987;BME280;58897;51.960;5.582;2023-06-24T03:48:12;102064.22;;;18.42;100.00
12987;BME280;58897;51.960;5.582;2023-06-24T03:50:40;102061.28;;;18.44;100.00
12987;BME280;58897;51.960;5.582;2023-06-24T03:53:07;102060.31;;;18.37;100.00
12987;BME280;58897;51.960;5.582;2023-06-24T03:55:34;102055.78;;;18.29;100.00
12987;BME280;58897;51.960;5.582;2023-06-24T03:58:01;102059.16;;;18.31;100.00
12987;BME280;58897;51.960;5.582;2023-06-24T04:00:30;102059.31;;;18.38;100.00
12987;BME280;58897;51.960;5.582;2023-06-24T04:02:59;102061.06;;;18.31;100.00
12987;BME280;58897;51.960;5.582;2023-06-24T04:05:29;102062.28;;;18.28;100.00
12987;BME280;58897;51.960;5.582;2023-06-24T04:07:56;102072.28;;;18.36;100.00
12987;BME280;58897;51.960;5.582;2023-06-24T04:10:24;102079.72;;;18.27;100.00
12987;BME280;58897;51.960;5.582;2023-06-24T04:12:51;102077.47;;;18.31;100.00
12987;BME280;58897;51.960;5.582;2023-06-24T04:15:17;102072.78;;;18.39;100.00
12987;BME280;58897;51.960;5.582;2023-06-24T04:17:44;102080.84;;;18.33;100.00
12987;BME280;58897;51.960;5.582;2023-06-24T04:20:11;102080.75;;;18.26;100.00
12987;BME280;58897;51.960;5.582;2023-06-24T04:22:39;102080.81;;;18.18;100.00
12987;BME280;58897;51.960;5.582;2023-06-24T04:25:10;102075.53;;;18.17;100.00
12987;BME280;58897;51.960;5.582;2023-06-24T04:27:38;102079.44;;;18.22;100.00
12987;BME280;58897;51.960;5.582;2023-06-24T04:30:05;102073.41;;;18.27;100.00
12987;BME280;58897;51.960;5.582;2023-06-24T04:32:32;102076.91;;;18.35;100.00
12987;BME280;58897;51.960;5.582;2023-06-24T04:35:02;102068.88;;;18.34;100.00
12987;BME280;58897;51.960;5.582;2023-06-24T04:37:30;102075.03;;;18.36;100.00
12987;BME280;58897;51.960;5.582;2023-06-24T04:39:57;102080.50;;;18.36;100.00
12987;BME280;58897;51.960;5.582;2023-06-24T04:42:24;102079.19;;;18.32;100.00
12987;BME280;58897;51.960;5.582;2023-06-24T04:44:51;102074.84;;;18.37;100.00
12987;BME280;58897;51.960;5.582;2023-06-24T04:47:21;102074.72;;;18.31;100.00
12987;BME280;58897;51.960;5.582;2023-06-24T04:49:50;102074.00;;;18.37;100.00
12987;BME280;58897;51.960;5.582;2023-06-24T04:52:16;102071.63;;;18.34;100.00
12987;BME280;58897;51.960;5.582;2023-06-24T04:54:43;102080.31;;;18.37;100.00
12987;BME280;58897;51.960;5.582;2023-06-24T04:57:26;102082.63;;;18.48;100.00
12987;BME280;58897;51.960;5.582;2023-06-24T04:59:53;102086.72;;;18.53;100.00
12987;BME280;58897;51.960;5.582;2023-06-24T05:02:20;102080.09;;;18.47;100.00
12987;BME280;58897;51.960;5.582;2023-06-24T05:04:48;102077.34;;;18.47;100.00
12987;BME280;58897;51.960;5.582;2023-06-24T05:07:15;102084.63;;;18.55;100.00
12987;BME280;58897;51.960;5.582;2023-06-24T05:09:47;102083.34;;;18.65;100.00
12987;BME280;58897;51.960;5.582;2023-06-24T05:12:14;102085.19;;;18.50;100.00
12987;BME280;58897;51.960;5.582;2023-06-24T05:14:41;102079.00;;;18.56;100.00
12987;BME280;58897;51.960;5.582;2023-06-24T05:17:09;102085.13;;;18.58;100.00
12987;BME280;58897;51.960;5.582;2023-06-24T05:19:40;102068.34;;;18.61;100.00
12987;BME280;58897;51.960;5.582;2023-06-24T05:22:07;102073.16;;;18.74;100.00
12987;BME280;58897;51.960;5.582;2023-06-24T05:24:34;102069.94;;;18.70;100.00
12987;BME280;58897;51.960;5.582;2023-06-24T05:27:05;102075.25;;;18.72;100.00
12987;BME280;58897;51.960;5.582;2023-06-24T05:29:33;102076.66;;;18.82;100.00
12987;BME280;58897;51.960;5.582;2023-06-24T05:32:00;102088.59;;;18.67;100.00
12987;BME280;58897;51.960;5.582;2023-06-24T05:34:36;102081.88;;;18.92;100.00
12987;BME280;58897;51.960;5.582;2023-06-24T05:37:07;102081.50;;;18.95;100.00
12987;BME280;58897;51.960;5.582;2023-06-24T05:39:34;102085.75;;;18.97;100.00
12987;BME280;58897;51.960;5.582;2023-06-24T05:42:01;102088.75;;;19.02;100.00
12987;BME280;58897;51.960;5.582;2023-06-24T05:44:30;102086.69;;;19.04;100.00
12987;BME280;58897;51.960;5.582;2023-06-24T05:46:57;102094.69;;;19.06;100.00
12987;BME280;58897;51.960;5.582;2023-06-24T05:49:24;102101.50;;;19.10;100.00
12987;BME280;58897;51.960;5.582;2023-06-24T05:51:51;102096.22;;;19.23;100.00
12987;BME280;58897;51.960;5.582;2023-06-24T05:54:18;102096.28;;;19.30;100.00
12987;BME280;58897;51.960;5.582;2023-06-24T05:56:45;102094.25;;;19.32;100.00
12987;BME280;58897;51.960;5.582;2023-06-24T05:59:12;102097.09;;;19.38;100.00
12987;BME280;58897;51.960;5.582;2023-06-24T06:01:42;102102.91;;;19.35;100.00
12987;BME280;58897;51.960;5.582;2023-06-24T06:04:08;102096.06;;;19.39;100.00
12987;BME280;58897;51.960;5.582;2023-06-24T06:06:35;102098.88;;;19.31;100.00
12987;BME280;58897;51.960;5.582;2023-06-24T06:09:02;102106.44;;;19.29;100.00
12987;BME280;58897;51.960;5.582;2023-06-24T06:11:29;102104.06;;;19.41;100.00
12987;BME280;58897;51.960;5.582;2023-06-24T06:13:59;102102.16;;;19.56;100.00
12987;BME280;58897;51.960;5.582;2023-06-24T06:16:26;102105.34;;;19.74;100.00
12987;BME280;58897;51.960;5.582;2023-06-24T06:18:54;102096.69;;;19.56;100.00
12987;BME280;58897;51.960;5.582;2023-06-24T06:21:21;102101.44;;;19.83;100.00
12987;BME280;58897;51.960;5.582;2023-06-24T06:23:51;102103.47;;;19.96;100.00
12987;BME280;58897;51.960;5.582;2023-06-24T06:26:18;102104.97;;;19.98;100.00
12987;BME280;58897;51.960;5.582;2023-06-24T06:28:45;102098.59;;;20.33;100.00
12987;BME280;58897;51.960;5.582;2023-06-24T06:31:14;102106.91;;;20.40;100.00
12987;BME280;58897;51.960;5.582;2023-06-24T06:33:41;102104.31;;;20.60;100.00
12987;BME280;58897;51.960;5.582;2023-06-24T06:36:07;102107.94;;;21.16;100.00
12987;BME280;58897;51.960;5.582;2023-06-24T06:38:34;102095.44;;;21.95;100.00
12987;BME280;58897;51.960;5.582;2023-06-24T06:41:01;102107.56;;;22.33;100.00
12987;BME280;58897;51.960;5.582;2023-06-24T06:43:28;102105.41;;;22.22;100.00
12987;BME280;58897;51.960;5.582;2023-06-24T06:45:54;102102.50;;;22.83;100.00
12987;BME280;58897;51.960;5.582;2023-06-24T06:48:22;102100.59;;;22.83;100.00
12987;BME280;58897;51.960;5.582;2023-06-24T06:50:49;102095.22;;;23.27;100.00
12987;BME280;58897;51.960;5.582;2023-06-24T06:53:16;102095.91;;;23.67;100.00
12987;BME280;58897;51.960;5.582;2023-06-24T06:55:42;102087.06;;;23.96;100.00
12987;BME280;58897;51.960;5.582;2023-06-24T06:58:09;102095.34;;;23.96;100.00
12987;BME280;58897;51.960;5.582;2023-06-24T07:00:36;102100.22;;;24.01;100.00
12987;BME280;58897;51.960;5.582;2023-06-24T07:03:03;102095.66;;;23.82;100.00
12987;BME280;58897;51.960;5.582;2023-06-24T07:05:30;102104.84;;;24.07;100.00
12987;BME280;58897;51.960;5.582;2023-06-24T07:07:58;102104.13;;;23.80;100.00
12987;BME280;58897;51.960;5.582;2023-06-24T07:10:25;102109.34;;;24.39;100.00
12987;BME280;58897;51.960;5.582;2023-06-24T07:12:51;102106.25;;;24.23;100.00
12987;BME280;58897;51.960;5.582;2023-06-24T07:15:25;102117.16;;;25.35;100.00
12987;BME280;58897;51.960;5.582;2023-06-24T07:17:52;102117.66;;;25.50;100.00
12987;BME280;58897;51.960;5.582;2023-06-24T07:20:22;102115.38;;;25.04;100.00
12987;BME280;58897;51.960;5.582;2023-06-24T07:22:51;102121.47;;;24.88;100.00
12987;BME280;58897;51.960;5.582;2023-06-24T07:25:18;102117.50;;;24.84;100.00
12987;BME280;58897;51.960;5.582;2023-06-24T07:27:59;102113.44;;;26.13;93.86
12987;BME280;58897;51.960;5.582;2023-06-24T07:30:25;102110.34;;;26.86;96.58
12987;BME280;58897;51.960;5.582;2023-06-24T07:32:52;102113.53;;;26.48;88.42
12987;BME280;58897;51.960;5.582;2023-06-24T07:35:19;102116.44;;;26.65;94.55
12987;BME280;58897;51.960;5.582;2023-06-24T07:37:45;102124.31;;;25.24;99.60
12987;BME280;58897;51.960;5.582;2023-06-24T07:40:12;102111.09;;;26.40;94.02
12987;BME280;58897;51.960;5.582;2023-06-24T07:42:38;102126.00;;;25.43;99.27
12987;BME280;58897;51.960;5.582;2023-06-24T07:45:05;102112.22;;;26.62;100.00
12987;BME280;58897;51.960;5.582;2023-06-24T07:47:32;102116.56;;;26.58;92.65
12987;BME280;58897;51.960;5.582;2023-06-24T07:49:58;102113.78;;;26.58;95.69
12987;BME280;58897;51.960;5.582;2023-06-24T07:52:25;102108.16;;;26.23;93.29
12987;BME280;58897;51.960;5.582;2023-06-24T07:54:52;102108.84;;;26.49;95.20
12987;BME280;58897;51.960;5.582;2023-06-24T07:57:19;102113.59;;;26.83;88.67
12987;BME280;58897;51.960;5.582;2023-06-24T07:59:46;102108.03;;;26.71;90.17
12987;BME280;58897;51.960;5.582;2023-06-24T08:02:13;102100.28;;;27.66;81.47
12987;BME280;58897;51.960;5.582;2023-06-24T08:04:39;102103.44;;;27.58;78.98
12987;BME280;58897;51.960;5.582;2023-06-24T08:07:06;102102.41;;;25.77;76.75
12987;BME280;58897;51.960;5.582;2023-06-24T08:09:33;102105.28;;;27.41;78.98
12987;BME280;58897;51.960;5.582;2023-06-24T08:11:59;102094.56;;;27.21;74.31
12987;BME280;58897;51.960;5.582;2023-06-24T08:14:26;102097.53;;;27.43;72.72
12987;BME280;58897;51.960;5.582;2023-06-24T08:16:52;102095.91;;;28.10;72.69
12987;BME280;58897;51.960;5.582;2023-06-24T08:19:19;102097.69;;;27.13;72.12
12987;BME280;58897;51.960;5.582;2023-06-24T08:21:45;102094.81;;;28.28;68.62
12987;BME280;58897;51.960;5.582;2023-06-24T08:24:12;102096.09;;;28.37;69.41
12987;BME280;58897;51.960;5.582;2023-06-24T08:26:38;102102.03;;;26.98;76.61
12987;BME280;58897;51.960;5.582;2023-06-24T08:29:05;102099.31;;;26.45;78.58
12987;BME280;58897;51.960;5.582;2023-06-24T08:31:33;102101.16;;;27.20;78.08
12987;BME280;58897;51.960;5.582;2023-06-24T08:34:00;102097.16;;;25.87;81.22
12987;BME280;58897;51.960;5.582;2023-06-24T08:36:28;102106.03;;;25.77;84.10
12987;BME280;58897;51.960;5.582;2023-06-24T08:38:58;102108.34;;;25.44;85.43
12987;BME280;58897;51.960;5.582;2023-06-24T08:41:24;102111.00;;;25.14;90.41
12987;BME280;58897;51.960;5.582;2023-06-24T08:43:52;102100.59;;;26.01;89.45
12987;BME280;58897;51.960;5.582;2023-06-24T08:46:21;102106.25;;;25.76;85.23
12987;BME280;58897;51.960;5.582;2023-06-24T08:48:48;102108.88;;;24.67;91.87
12987;BME280;58897;51.960;5.582;2023-06-24T08:51:20;102102.66;;;24.78;93.46
12987;BME280;58897;51.960;5.582;2023-06-24T08:53:51;102114.03;;;24.88;90.22
12987;BME280;58897;51.960;5.582;2023-06-24T08:56:17;102109.16;;;25.45;89.97
12987;BME280;58897;51.960;5.582;2023-06-24T08:58:44;102102.03;;;26.03;85.16
12987;BME280;58897;51.960;5.582;2023-06-24T09:01:11;102102.53;;;26.30;88.25
12987;BME280;58897;51.960;5.582;2023-06-24T09:03:38;102098.22;;;26.04;87.91
12987;BME280;58897;51.960;5.582;2023-06-24T09:06:04;102093.31;;;26.71;88.75
12987;BME280;58897;51.960;5.582;2023-06-24T09:08:31;102099.84;;;26.23;86.59
12987;BME280;58897;51.960;5.582;2023-06-24T09:10:58;102086.31;;;27.38;84.14
12987;BME280;58897;51.960;5.582;2023-06-24T09:13:33;102090.56;;;27.29;80.01
12987;BME280;58897;51.960;5.582;2023-06-24T09:16:12;102091.06;;;26.26;92.34
12987;BME280;58897;51.960;5.582;2023-06-24T09:18:40;102091.81;;;25.74;87.15
12987;BME280;58897;51.960;5.582;2023-06-24T09:21:07;102099.75;;;25.70;81.81
12987;BME280;58897;51.960;5.582;2023-06-24T09:23:37;102086.94;;;27.17;82.62
12987;BME280;58897;51.960;5.582;2023-06-24T09:26:03;102084.31;;;27.10;75.20
12987;BME280;58897;51.960;5.582;2023-06-24T09:28:30;102093.81;;;27.37;80.94
12987;BME280;58897;51.960;5.582;2023-06-24T09:31:09;102084.06;;;28.31;74.87
12987;BME280;58897;51.960;5.582;2023-06-24T09:33:46;102083.31;;;28.36;66.26
12987;BME280;58897;51.960;5.582;2023-06-24T09:36:14;102085.06;;;27.97;70.48
12987;BME280;58897;51.960;5.582;2023-06-24T09:38:44;102079.94;;;28.50;66.41
12987;BME280;58897;51.960;5.582;2023-06-24T09:41:11;102068.16;;;28.43;61.00
12987;BME280;58897;51.960;5.582;2023-06-24T09:43:42;102070.94;;;29.53;62.62
12987;BME280;58897;51.960;5.582;2023-06-24T09:46:11;102061.53;;;30.34;60.89
12987;BME280;58897;51.960;5.582;2023-06-24T09:48:38;102071.72;;;29.27;63.87
12987;BME280;58897;51.960;5.582;2023-06-24T09:51:06;102062.25;;;29.50;66.02
12987;BME280;58897;51.960;5.582;2023-06-24T09:53:34;102061.59;;;30.13;67.87
12987;BME280;58897;51.960;5.582;2023-06-24T09:56:03;102050.81;;;30.21;62.11
12987;BME280;58897;51.960;5.582;2023-06-24T09:58:32;102061.75;;;30.91;62.31
12987;BME280;58897;51.960;5.582;2023-06-24T10:01:02;102047.81;;;30.60;57.53
12987;BME280;58897;51.960;5.582;2023-06-24T10:03:32;102058.69;;;30.61;58.75
12987;BME280;58897;51.960;5.582;2023-06-24T10:06:01;102059.00;;;30.96;61.59
12987;BME280;58897;51.960;5.582;2023-06-24T10:08:29;102065.66;;;30.58;56.03
12987;BME280;58897;51.960;5.582;2023-06-24T10:10:57;102060.50;;;30.14;57.79
12987;BME280;58897;51.960;5.582;2023-06-24T10:13:26;102052.56;;;30.32;57.41
12987;BME280;58897;51.960;5.582;2023-06-24T10:15:54;102057.00;;;30.55;59.86
12987;BME280;58897;51.960;5.582;2023-06-24T10:20:57;102053.25;;;30.13;64.49
12987;BME280;58897;51.960;5.582;2023-06-24T10:26:10;102048.31;;;30.51;64.80
12987;BME280;58897;51.960;5.582;2023-06-24T10:34:31;102044.25;;;30.69;60.76
12987;BME280;58897;51.960;5.582;2023-06-24T10:39:45;102036.81;;;30.80;63.27
12987;BME280;58897;51.960;5.582;2023-06-24T10:44:48;102038.69;;;30.69;66.25
12987;BME280;58897;51.960;5.582;2023-06-24T10:47:15;102036.97;;;31.00;64.07
12987;BME280;58897;51.960;5.582;2023-06-24T10:49:41;102037.75;;;30.95;65.64
12987;BME280;58897;51.960;5.582;2023-06-24T10:52:13;102032.47;;;30.57;67.91
12987;BME280;58897;51.960;5.582;2023-06-24T10:54:41;102038.75;;;30.37;62.42
12987;BME280;58897;51.960;5.582;2023-06-24T10:57:09;102037.44;;;30.50;64.80
12987;BME280;58897;51.960;5.582;2023-06-24T10:59:46;102030.25;;;30.96;63.80
12987;BME280;58897;51.960;5.582;2023-06-24T11:02:14;102019.38;;;31.51;63.58
12987;BME280;58897;51.960;5.582;2023-06-24T11:04:55;102026.97;;;31.09;64.39
12987;BME280;58897;51.960;5.582;2023-06-24T11:07:23;102024.28;;;30.87;63.57
12987;BME280;58897;51.960;5.582;2023-06-24T11:09:55;102030.56;;;30.99;68.03
12987;BME280;58897;51.960;5.582;2023-06-24T11:12:26;102020.75;;;30.92;62.27
12987;BME280;58897;51.960;5.582;2023-06-24T11:15:02;102019.03;;;30.49;65.90
12987;BME280;58897;51.960;5.582;2023-06-24T11:17:29;102017.00;;;30.39;61.46
12987;BME280;58897;51.960;5.582;2023-06-24T11:19:57;102011.66;;;31.22;68.79
12987;BME280;58897;51.960;5.582;2023-06-24T11:22:25;102004.34;;;31.67;62.66
12987;BME280;58897;51.960;5.582;2023-06-24T11:24:52;102008.88;;;31.22;59.09
12987;BME280;58897;51.960;5.582;2023-06-24T11:27:30;102018.72;;;29.87;67.90
12987;BME280;58897;51.960;5.582;2023-06-24T11:30:00;102006.56;;;30.30;67.34
12987;BME280;58897;51.960;5.582;2023-06-24T11:32:37;101994.44;;;31.40;64.04
12987;BME280;58897;51.960;5.582;2023-06-24T11:35:09;101999.78;;;30.89;60.81
12987;BME280;58897;51.960;5.582;2023-06-24T11:37:36;102008.06;;;30.79;64.51
12987;BME280;58897;51.960;5.582;2023-06-24T11:40:07;101994.94;;;30.06;64.27
12987;BME280;58897;51.960;5.582;2023-06-24T11:42:38;101994.75;;;29.86;71.74
12987;BME280;58897;51.960;5.582;2023-06-24T11:45:08;101990.88;;;30.50;67.24
12987;BME280;58897;51.960;5.582;2023-06-24T11:47:40;101990.34;;;31.62;67.22
12987;BME280;58897;51.960;5.582;2023-06-24T11:50:07;101990.97;;;32.05;60.50
12987;BME280;58897;51.960;5.582;2023-06-24T11:52:49;101994.28;;;31.97;58.96
12987;BME280;58897;51.960;5.582;2023-06-24T11:55:17;101997.19;;;31.30;60.06
12987;BME280;58897;51.960;5.582;2023-06-24T11:57:58;101991.09;;;30.44;64.22
12987;BME280;58897;51.960;5.582;2023-06-24T12:02:58;101987.63;;;31.10;63.00
12987;BME280;58897;51.960;5.582;2023-06-24T12:05:32;101986.94;;;31.45;62.06
12987;BME280;58897;51.960;5.582;2023-06-24T12:08:10;101983.91;;;31.57;57.08
12987;BME280;58897;51.960;5.582;2023-06-24T12:10:38;101987.06;;;31.13;56.11
12987;BME280;58897;51.960;5.582;2023-06-24T12:13:05;101983.09;;;31.82;61.69
12987;BME280;58897;51.960;5.582;2023-06-24T12:15:33;101970.31;;;32.16;60.71
12987;BME280;58897;51.960;5.582;2023-06-24T12:18:00;101969.44;;;32.51;58.43
12987;BME280;58897;51.960;5.582;2023-06-24T12:20:29;101974.22;;;32.25;61.60
12987;BME280;58897;51.960;5.582;2023-06-24T12:23:02;101974.78;;;32.12;62.67
12987;BME280;58897;51.960;5.582;2023-06-24T12:25:30;101973.09;;;32.21;59.73
12987;BME280;58897;51.960;5.582;2023-06-24T12:27:56;101973.41;;;32.14;58.86
12987;BME280;58897;51.960;5.582;2023-06-24T12:30:25;101964.72;;;32.26;60.44
12987;BME280;58897;51.960;5.582;2023-06-24T12:32:52;101967.88;;;31.27;58.47
12987;BME280;58897;51.960;5.582;2023-06-24T12:35:18;101975.03;;;31.03;59.13
12987;BME280;58897;51.960;5.582;2023-06-24T12:37:46;101968.84;;;30.91;55.38
12987;BME280;58897;51.960;5.582;2023-06-24T12:40:14;101962.00;;;30.72;56.25
12987;BME280;58897;51.960;5.582;2023-06-24T12:42:40;101954.75;;;31.28;64.18
12987;BME280;58897;51.960;5.582;2023-06-24T12:45:07;101957.97;;;31.92;64.49
12987;BME280;58897;51.960;5.582;2023-06-24T12:47:34;101956.31;;;31.96;63.12
12987;BME280;58897;51.960;5.582;2023-06-24T12:50:01;101949.13;;;31.12;60.28
12987;BME280;58897;51.960;5.582;2023-06-24T12:52:27;101952.69;;;30.56;64.78
12987;BME280;58897;51.960;5.582;2023-06-24T12:54:54;101943.59;;;31.28;64.74
12987;BME280;58897;51.960;5.582;2023-06-24T12:57:20;101941.84;;;31.06;59.04
12987;BME280;58897;51.960;5.582;2023-06-24T12:59:47;101941.25;;;30.99;64.90
12987;BME280;58897;51.960;5.582;2023-06-24T13:02:13;101942.19;;;29.94;62.28
12987;BME280;58897;51.960;5.582;2023-06-24T13:04:40;101943.59;;;29.70;63.18
12987;BME280;58897;51.960;5.582;2023-06-24T13:07:07;101942.56;;;30.03;62.60
12987;BME280;58897;51.960;5.582;2023-06-24T13:09:36;101936.50;;;29.79;65.83
12987;BME280;58897;51.960;5.582;2023-06-24T13:12:03;101941.50;;;29.29;67.16
12987;BME280;58897;51.960;5.582;2023-06-24T13:14:30;101942.19;;;29.68;72.19
12987;BME280;58897;51.960;5.582;2023-06-24T13:16:56;101933.25;;;30.24;67.23
12987;BME280;58897;51.960;5.582;2023-06-24T13:19:23;101929.97;;;30.79;68.71
12987;BME280;58897;51.960;5.582;2023-06-24T13:21:50;101928.69;;;30.97;70.30